Nearby METAR Reports

 

KIMT - Iron Mountain, Michigan, USA
Distance from station: 0 29mi, 47km
Updated: Mon, 10-Dec-2018 3:54am CST
Clear
Clear
 Wind from calm
Wind: Calm
Temperature: 7°F , -14°C
Dew Point: 1°F , -17°C
Humidity: 78%
Barometer: 30.12 inHg , 1020 hPa
Clouds: Clear
Visibility: 8 miles , 13 km
2018/12/10 09:54 KIMT 100954Z AUTO 00000KT 8SM CLR M14/M17 A3012 RMK AO2 SLP222 T11391172
KMNM - Menominee, Michigan, USA
Distance from station: SE 31mi, 51km
Updated: Mon, 10-Dec-2018 3:56am CST
Clear
Clear
 Wind from W
Wind: W 5 mph , 7 km/h
Temperature: 18°F , -8°C
Wind Chill: 11°F , -12°C
Dew Point: 14°F , -10°C
Humidity: 86%
Barometer: 30.19 inHg , 1022.4 hPa
Clouds: Clear
Visibility: 7 miles , 11 km
2018/12/10 09:56 KMNM 100956Z AUTO 26004KT 7SM CLR M08/M10 A3019 RMK AO2 SLP247 T10831100 FZRANO $
 
KOCQ - Oconto, Wisconsin, USA
Distance from station: SSE 38mi, 61km
Updated: Mon, 10-Dec-2018 4:35am CST
Clear
Clear
 Wind from calm
Wind: Calm
Temperature: 12°F , -11°C
Dew Point: 10°F , -12°C
Humidity: 92%
Barometer: 30.20 inHg , 1022.7 hPa
Clouds: Clear
Visibility: 7 miles , 11 km
2018/12/10 10:35 KOCQ 101035Z AUTO 00000KT 7SM CLR M11/M12 A3020 RMK AO1 T11111122
KEZS - Shawano Muni, Wisconsin, USA
Distance from station: SSW 48mi, 77km
Updated: Mon, 10-Dec-2018 4:35am CST
Clear
Clear
 Wind from calm
Wind: Calm
Temperature: 18°F , -8°C
Dew Point: 14°F , -10°C
Humidity: 86%
Barometer: 30.19 inHg , 1022.4 hPa
Clouds: Clear
Visibility: 7 miles , 11 km
2018/12/10 10:35 KEZS 101035Z AUTO 00000KT 7SM CLR M08/M10 A3019 RMK AO2 T10851100
 
KAIG - Antigo/Langlade, Wisconsin, USA
Distance from station: WSW 51mi, 82km
Updated: Mon, 10-Dec-2018 4:35am CST
Mostly cloudy
Mostly cloudy
 Wind from W
Wind: W 6 mph , 9 km/h
Temperature: 14°F , -10°C
Wind Chill: 5°F , -15°C
Dew Point: 12°F , -11°C
Humidity: 92%
Barometer: 30.14 inHg , 1020.7 hPa
Clouds: Mostly cloudy
Visibility: 7 miles , 11 km
Cloud details: Mostly cloudy 800 ft
2018/12/10 10:35 KAIG 101035Z AUTO 28005KT 7SM BKN008 M10/M11 A3014 RMK AO2 T11051111
KSUE - Sturgeon Bay, Wisconsin, USA
Distance from station: SE 51mi, 82km
Updated: Mon, 10-Dec-2018 3:56am CST
Clear
Clear
 Wind from W
Wind: W 8 mph , 13 km/h
Temperature: 21°F , -6°C
Wind Chill: 11°F , -12°C
Dew Point: 18°F , -8°C
Humidity: 86%
Barometer: 30.20 inHg , 1022.7 hPa
Clouds: Clear
Visibility: 10 miles , 16 km
2018/12/10 09:56 KSUE 100956Z AUTO 26007KT 10SM CLR M06/M08 A3020 RMK AO2 SLP250 T10611078 FZRANO
 
KESC - Escanaba, Michigan, USA
Distance from station: ENE 56mi, 90km
Updated: Mon, 10-Dec-2018 3:56am CST
Clear
Clear
 Wind from W
Wind: W 6 mph , 9 km/h
Temperature: 16°F , -9°C
Wind Chill: 7°F , -14°C
Dew Point: 12°F , -11°C
Humidity: 86%
Barometer: 30.16 inHg , 1021.3 hPa
Clouds: Clear
Visibility: 8 miles , 13 km
2018/12/10 09:56 KESC 100956Z AUTO 28005KT 8SM CLR M09/M11 A3016 RMK AO2 SLP240 T10891106 FZRANO
KCLI - Clintonville, Wisconsin, USA
Distance from station: SSW 62mi, 99km
Updated: Mon, 10-Dec-2018 4:35am CST
Clear
Clear
 Wind from SW
Wind: SW 3 mph , 6 km/h
Temperature: 14°F , -10°C
Dew Point: 12°F , -11°C
Humidity: 92%
Barometer: 30.20 inHg , 1022.7 hPa
Clouds: Clear
Visibility: 7 miles , 11 km
2018/12/10 10:35 KCLI 101035Z AUTO 23003KT 7SM CLR M10/M11 A3020 RMK AO2 T11011115
 
KGRB - Ashwaubenon, Wisconsin, USA
Distance from station: S 63mi, 102km
Updated: Mon, 10-Dec-2018 3:53am CST
Clear
Clear
 Wind from SSW
Wind: SSW 5 mph , 7 km/h
Temperature: 18°F , -8°C
Wind Chill: 11°F , -12°C
Dew Point: 14°F , -10°C
Humidity: 86%
Barometer: 30.21 inHg , 1023 hPa
Clouds: Clear
Visibility: 8 miles , 13 km
2018/12/10 09:53 KGRB 100953Z AUTO 21004KT 8SM CLR M08/M10 A3021 RMK AO2 SLP242 T10781100 $
KEGV - Eagle River, Wisconsin, USA
Distance from station: NW 66mi, 107km
Updated: Mon, 10-Dec-2018 4:35am CST
Mist, Clear
Mist, Clear
 Wind from calm
Wind: Calm
Temperature: 9°F , -13°C
Dew Point: 5°F , -15°C
Humidity: 85%
Barometer: 30.09 inHg , 1019 hPa
Summary: Mist
Clouds: Clear
Visibility: 4 miles , 6 km
2018/12/10 10:35 KEGV 101035Z AUTO 00000KT 4SM BR CLR M13/M15 A3009 RMK AO2 T11331148
 
KRHI - Rhinelander, Wisconsin, USA
Distance from station: WNW 68mi, 109km
Updated: Mon, 10-Dec-2018 4:15am CST
Haze, Mostly cloudy
Haze, Mostly cloudy
 Wind from W
Wind: W 5 mph , 7 km/h
Temperature: 12°F , -11°C
Wind Chill: 4°F , -16°C
Dew Point: 7°F , -14°C
Humidity: 79%
Barometer: 30.12 inHg , 1020 hPa
Summary: Haze
Clouds: Mostly cloudy
Visibility: 5 miles , 8 km
Cloud details: Mostly cloudy 700 ft
2018/12/10 10:15 KRHI 101015Z AUTO 26004KT 5SM HZ BKN007 M11/M14 A3012 RMK AO2 T11061139 $
KLNL - Land O Lakes, Wisconsin, USA
Distance from station: NW 74mi, 119km
Updated: Mon, 10-Dec-2018 4:35am CST
Clear
Clear
 Wind from calm
Wind: Calm
Temperature: 5°F , -15°C
Dew Point: 1°F , -17°C
Humidity: 85%
Barometer: 30.09 inHg , 1019 hPa
Clouds: Clear
Visibility: 7 miles , 11 km
2018/12/10 10:35 KLNL 101035Z AUTO 00000KT 7SM CLR M15/M17 A3009 RMK AO2 T11511171
 
KSAW - Gwinn/Sawyer, Michigan, USA
Distance from station: NNE 74mi, 120km
Updated: Mon, 10-Dec-2018 4:38am CST
Clear
Clear
 Wind from calm
Wind: Calm
Temperature: 10°F , -12°C
Dew Point: 7°F , -14°C
Humidity: 85%
Barometer: 30.07 inHg , 1018.3 hPa
Clouds: Clear
Visibility: 7 miles , 11 km
2018/12/10 10:38 KSAW 101038Z AUTO 00000KT 7SM CLR M12/M14 A3007 RMK AO2 T11211137